Terminal Aerodrome Forecast
Issued by NWS Pueblo, CO

Home | Current Version | Previous Version | Text Only | Print | Product List | Glossary On
Versions: 1 2 3 4 5 6 7 8 9 10 11 12 13 14 15 16 17 18 19 20 21 22 23 24
000
FTUS45 KPUB 220520
TAFALS
TAF
KALS 220520Z 2206/2306 16008KT P6SM SCT080 BKN100
     FM220800 18006KT P6SM VCSH SCT025 BKN050
     FM221700 20009KT P6SM SCT040 BKN060
     FM222200 24012KT P6SM FEW040 SCT100
     FM230300 19008KT P6SM SCT100=

USA.gov is the U.S. government's official web portal to all federal, state and local government web resources and services.